sensor_id;sensor_type;location;lat;lon;timestamp;temperature;humidity
67141;DHT22;54058;52.010;5.546;2023-07-31T00:00:24;17.20;84.50
67141;DHT22;54058;52.010;5.546;2023-07-31T00:02:52;17.20;84.50
67141;DHT22;54058;52.010;5.546;2023-07-31T00:05:17;17.20;84.70
67141;DHT22;54058;52.010;5.546;2023-07-31T00:07:43;17.20;84.80
67141;DHT22;54058;52.010;5.546;2023-07-31T00:10:09;17.20;85.00
67141;DHT22;54058;52.010;5.546;2023-07-31T00:12:34;17.20;85.00
67141;DHT22;54058;52.010;5.546;2023-07-31T00:15:01;17.20;85.20
67141;DHT22;54058;52.010;5.546;2023-07-31T00:17:26;17.20;85.30
67141;DHT22;54058;52.010;5.546;2023-07-31T00:19:52;17.20;85.40
67141;DHT22;54058;52.010;5.546;2023-07-31T00:22:18;17.30;85.60
67141;DHT22;54058;52.010;5.546;2023-07-31T00:24:43;17.30;85.50
67141;DHT22;54058;52.010;5.546;2023-07-31T00:27:09;17.30;85.70
67141;DHT22;54058;52.010;5.546;2023-07-31T00:29:35;17.30;85.80
67141;DHT22;54058;52.010;5.546;2023-07-31T00:32:01;17.30;85.90
67141;DHT22;54058;52.010;5.546;2023-07-31T00:34:27;17.30;86.00
67141;DHT22;54058;52.010;5.546;2023-07-31T00:36:52;17.30;86.30
67141;DHT22;54058;52.010;5.546;2023-07-31T00:39:18;17.30;86.30
67141;DHT22;54058;52.010;5.546;2023-07-31T00:41:44;17.40;86.40
67141;DHT22;54058;52.010;5.546;2023-07-31T00:44:10;17.40;86.70
67141;DHT22;54058;52.010;5.546;2023-07-31T00:46:36;17.50;86.80
67141;DHT22;54058;52.010;5.546;2023-07-31T00:49:02;17.50;86.80
67141;DHT22;54058;52.010;5.546;2023-07-31T00:51:28;17.50;87.00
67141;DHT22;54058;52.010;5.546;2023-07-31T00:53:54;17.60;87.10
67141;DHT22;54058;52.010;5.546;2023-07-31T00:56:22;17.60;87.20
67141;DHT22;54058;52.010;5.546;2023-07-31T00:58:48;17.60;87.30
67141;DHT22;54058;52.010;5.546;2023-07-31T01:01:15;17.60;87.30
67141;DHT22;54058;52.010;5.546;2023-07-31T01:03:40;17.60;87.40
67141;DHT22;54058;52.010;5.546;2023-07-31T01:12:01;17.60;87.80
67141;DHT22;54058;52.010;5.546;2023-07-31T01:14:27;17.60;87.80
67141;DHT22;54058;52.010;5.546;2023-07-31T01:16:53;17.60;87.90
67141;DHT22;54058;52.010;5.546;2023-07-31T01:19:22;17.60;88.00
67141;DHT22;54058;52.010;5.546;2023-07-31T01:22:11;17.60;88.00
67141;DHT22;54058;52.010;5.546;2023-07-31T01:24:55;17.60;88.60
67141;DHT22;54058;52.010;5.546;2023-07-31T01:27:38;17.70;89.60
67141;DHT22;54058;52.010;5.546;2023-07-31T01:30:13;17.60;88.90
67141;DHT22;54058;52.010;5.546;2023-07-31T01:32:43;17.70;88.70
67141;DHT22;54058;52.010;5.546;2023-07-31T01:35:11;17.70;88.30
67141;DHT22;54058;52.010;5.546;2023-07-31T01:37:37;17.70;88.40
67141;DHT22;54058;52.010;5.546;2023-07-31T01:40:04;17.70;88.80
67141;DHT22;54058;52.010;5.546;2023-07-31T01:42:29;17.70;88.20
67141;DHT22;54058;52.010;5.546;2023-07-31T01:44:55;17.70;88.50
67141;DHT22;54058;52.010;5.546;2023-07-31T01:47:21;17.70;88.40
67141;DHT22;54058;52.010;5.546;2023-07-31T01:49:46;17.70;89.10
67141;DHT22;54058;52.010;5.546;2023-07-31T01:52:12;17.70;89.00
67141;DHT22;54058;52.010;5.546;2023-07-31T01:54:37;17.70;89.00
67141;DHT22;54058;52.010;5.546;2023-07-31T01:57:03;17.70;89.10
67141;DHT22;54058;52.010;5.546;2023-07-31T01:59:29;17.70;89.40
67141;DHT22;54058;52.010;5.546;2023-07-31T02:01:54;17.70;89.50
67141;DHT22;54058;52.010;5.546;2023-07-31T02:04:20;17.70;89.60
67141;DHT22;54058;52.010;5.546;2023-07-31T02:06:45;17.60;89.80
67141;DHT22;54058;52.010;5.546;2023-07-31T02:09:11;17.60;90.10
67141;DHT22;54058;52.010;5.546;2023-07-31T02:11:36;17.50;90.20
67141;DHT22;54058;52.010;5.546;2023-07-31T02:14:02;17.50;90.10
67141;DHT22;54058;52.010;5.546;2023-07-31T02:16:28;17.50;90.10
67141;DHT22;54058;52.010;5.546;2023-07-31T02:18:53;17.40;90.20
67141;DHT22;54058;52.010;5.546;2023-07-31T02:21:19;17.40;90.20
67141;DHT22;54058;52.010;5.546;2023-07-31T02:23:44;17.40;90.30
67141;DHT22;54058;52.010;5.546;2023-07-31T02:26:10;17.40;90.50
67141;DHT22;54058;52.010;5.546;2023-07-31T02:28:36;17.40;90.30
67141;DHT22;54058;52.010;5.546;2023-07-31T02:31:01;17.40;90.30
67141;DHT22;54058;52.010;5.546;2023-07-31T02:33:27;17.40;90.20
67141;DHT22;54058;52.010;5.546;2023-07-31T02:35:52;17.40;90.30
67141;DHT22;54058;52.010;5.546;2023-07-31T02:38:18;17.40;90.40
67141;DHT22;54058;52.010;5.546;2023-07-31T02:40:44;17.40;90.30
67141;DHT22;54058;52.010;5.546;2023-07-31T02:43:10;17.40;90.30
67141;DHT22;54058;52.010;5.546;2023-07-31T02:45:35;17.40;90.30
67141;DHT22;54058;52.010;5.546;2023-07-31T02:48:01;17.40;90.20
67141;DHT22;54058;52.010;5.546;2023-07-31T02:50:27;17.50;90.40
67141;DHT22;54058;52.010;5.546;2023-07-31T02:52:55;17.50;90.30
67141;DHT22;54058;52.010;5.546;2023-07-31T02:55:21;17.50;90.30
67141;DHT22;54058;52.010;5.546;2023-07-31T02:57:46;17.40;90.40
67141;DHT22;54058;52.010;5.546;2023-07-31T03:00:13;17.40;90.50
67141;DHT22;54058;52.010;5.546;2023-07-31T03:02:38;17.40;90.50
67141;DHT22;54058;52.010;5.546;2023-07-31T03:05:04;17.50;90.50
67141;DHT22;54058;52.010;5.546;2023-07-31T03:07:30;17.40;90.40
67141;DHT22;54058;52.010;5.546;2023-07-31T03:09:56;17.50;90.50
67141;DHT22;54058;52.010;5.546;2023-07-31T03:12:22;17.40;90.50
67141;DHT22;54058;52.010;5.546;2023-07-31T03:14:47;17.50;90.50
67141;DHT22;54058;52.010;5.546;2023-07-31T03:17:13;17.50;90.50
67141;DHT22;54058;52.010;5.546;2023-07-31T03:19:38;17.50;90.50
67141;DHT22;54058;52.010;5.546;2023-07-31T03:22:05;17.50;90.50
67141;DHT22;54058;52.010;5.546;2023-07-31T03:24:30;17.50;90.50
67141;DHT22;54058;52.010;5.546;2023-07-31T03:26:56;17.50;90.50
67141;DHT22;54058;52.010;5.546;2023-07-31T03:29:22;17.50;90.50
67141;DHT22;54058;52.010;5.546;2023-07-31T03:31:48;17.50;90.50
67141;DHT22;54058;52.010;5.546;2023-07-31T03:34:13;17.50;90.50
67141;DHT22;54058;52.010;5.546;2023-07-31T03:36:39;17.50;90.50
67141;DHT22;54058;52.010;5.546;2023-07-31T03:39:05;17.50;90.60
67141;DHT22;54058;52.010;5.546;2023-07-31T03:41:30;17.50;90.60
67141;DHT22;54058;52.010;5.546;2023-07-31T03:43:56;17.50;90.50
67141;DHT22;54058;52.010;5.546;2023-07-31T03:46:22;17.50;90.50
67141;DHT22;54058;52.010;5.546;2023-07-31T03:48:48;17.50;90.50
67141;DHT22;54058;52.010;5.546;2023-07-31T03:51:14;17.50;90.50
67141;DHT22;54058;52.010;5.546;2023-07-31T03:53:40;17.50;90.60
67141;DHT22;54058;52.010;5.546;2023-07-31T03:56:05;17.50;90.60
67141;DHT22;54058;52.010;5.546;2023-07-31T03:58:31;17.50;90.60
67141;DHT22;54058;52.010;5.546;2023-07-31T04:00:57;17.50;90.60
67141;DHT22;54058;52.010;5.546;2023-07-31T04:03:22;17.50;90.60
67141;DHT22;54058;52.010;5.546;2023-07-31T04:05:48;17.50;90.50
67141;DHT22;54058;52.010;5.546;2023-07-31T04:08:13;17.60;90.50
67141;DHT22;54058;52.010;5.546;2023-07-31T04:10:39;17.60;90.50
67141;DHT22;54058;52.010;5.546;2023-07-31T04:13:05;17.50;90.50
67141;DHT22;54058;52.010;5.546;2023-07-31T04:15:30;17.50;90.50
67141;DHT22;54058;52.010;5.546;2023-07-31T04:17:56;17.60;90.80
67141;DHT22;54058;52.010;5.546;2023-07-31T04:20:21;17.60;90.50
67141;DHT22;54058;52.010;5.546;2023-07-31T04:22:48;17.60;90.50
67141;DHT22;54058;52.010;5.546;2023-07-31T04:25:13;17.60;90.50
67141;DHT22;54058;52.010;5.546;2023-07-31T04:27:39;17.60;90.50
67141;DHT22;54058;52.010;5.546;2023-07-31T04:30:06;17.60;90.50
67141;DHT22;54058;52.010;5.546;2023-07-31T04:32:31;17.60;90.50
67141;DHT22;54058;52.010;5.546;2023-07-31T04:34:57;17.60;90.50
67141;DHT22;54058;52.010;5.546;2023-07-31T04:37:23;17.60;90.50
67141;DHT22;54058;52.010;5.546;2023-07-31T04:39:48;17.60;90.60
67141;DHT22;54058;52.010;5.546;2023-07-31T04:42:14;17.60;90.50
67141;DHT22;54058;52.010;5.546;2023-07-31T04:44:40;17.70;90.60
67141;DHT22;54058;52.010;5.546;2023-07-31T04:47:07;17.70;90.60
67141;DHT22;54058;52.010;5.546;2023-07-31T04:49:32;17.60;90.60
67141;DHT22;54058;52.010;5.546;2023-07-31T04:51:58;17.70;91.40
67141;DHT22;54058;52.010;5.546;2023-07-31T04:54:23;17.70;90.60
67141;DHT22;54058;52.010;5.546;2023-07-31T04:56:49;17.70;90.60
67141;DHT22;54058;52.010;5.546;2023-07-31T04:59:15;17.70;90.50
67141;DHT22;54058;52.010;5.546;2023-07-31T05:01:40;17.60;90.60
67141;DHT22;54058;52.010;5.546;2023-07-31T05:04:06;17.60;90.60
67141;DHT22;54058;52.010;5.546;2023-07-31T05:06:32;17.60;90.70
67141;DHT22;54058;52.010;5.546;2023-07-31T05:08:57;17.60;91.00
67141;DHT22;54058;52.010;5.546;2023-07-31T05:11:23;17.60;90.70
67141;DHT22;54058;52.010;5.546;2023-07-31T05:13:49;17.60;90.80
67141;DHT22;54058;52.010;5.546;2023-07-31T05:16:14;17.60;90.80
67141;DHT22;54058;52.010;5.546;2023-07-31T05:18:40;17.60;90.90
67141;DHT22;54058;52.010;5.546;2023-07-31T05:21:05;17.60;90.80
67141;DHT22;54058;52.010;5.546;2023-07-31T05:23:31;17.60;90.80
67141;DHT22;54058;52.010;5.546;2023-07-31T05:26:04;17.60;90.90
67141;DHT22;54058;52.010;5.546;2023-07-31T05:28:30;17.60;91.70
67141;DHT22;54058;52.010;5.546;2023-07-31T05:31:00;17.60;90.80
67141;DHT22;54058;52.010;5.546;2023-07-31T05:33:26;17.60;90.90
67141;DHT22;54058;52.010;5.546;2023-07-31T05:35:52;17.60;90.90
67141;DHT22;54058;52.010;5.546;2023-07-31T05:38:18;17.60;90.90
67141;DHT22;54058;52.010;5.546;2023-07-31T05:40:43;17.60;91.00
67141;DHT22;54058;52.010;5.546;2023-07-31T05:43:09;17.60;90.90
67141;DHT22;54058;52.010;5.546;2023-07-31T05:45:35;17.60;91.00
67141;DHT22;54058;52.010;5.546;2023-07-31T05:48:01;17.50;91.00
67141;DHT22;54058;52.010;5.546;2023-07-31T05:50:26;17.60;91.00
67141;DHT22;54058;52.010;5.546;2023-07-31T05:52:52;17.50;91.00
67141;DHT22;54058;52.010;5.546;2023-07-31T05:55:18;17.60;91.00
67141;DHT22;54058;52.010;5.546;2023-07-31T05:57:43;17.50;91.10
67141;DHT22;54058;52.010;5.546;2023-07-31T06:00:12;17.60;91.10
67141;DHT22;54058;52.010;5.546;2023-07-31T06:02:37;17.60;91.10
67141;DHT22;54058;52.010;5.546;2023-07-31T06:05:04;17.50;91.10
67141;DHT22;54058;52.010;5.546;2023-07-31T06:07:31;17.60;91.10
67141;DHT22;54058;52.010;5.546;2023-07-31T06:09:57;17.60;91.10
67141;DHT22;54058;52.010;5.546;2023-07-31T06:12:28;17.60;91.10
67141;DHT22;54058;52.010;5.546;2023-07-31T06:14:54;17.60;91.10
67141;DHT22;54058;52.010;5.546;2023-07-31T06:17:20;17.60;91.20
67141;DHT22;54058;52.010;5.546;2023-07-31T06:19:46;17.60;91.20
67141;DHT22;54058;52.010;5.546;2023-07-31T06:22:12;17.60;91.30
67141;DHT22;54058;52.010;5.546;2023-07-31T06:24:37;17.60;91.30
67141;DHT22;54058;52.010;5.546;2023-07-31T06:27:03;17.60;91.30
67141;DHT22;54058;52.010;5.546;2023-07-31T06:29:29;17.60;91.40
67141;DHT22;54058;52.010;5.546;2023-07-31T06:31:55;17.60;91.50
67141;DHT22;54058;52.010;5.546;2023-07-31T06:34:21;17.70;91.40
67141;DHT22;54058;52.010;5.546;2023-07-31T06:36:46;17.70;91.40
67141;DHT22;54058;52.010;5.546;2023-07-31T06:39:12;17.70;91.50
67141;DHT22;54058;52.010;5.546;2023-07-31T06:41:38;17.70;91.50
67141;DHT22;54058;52.010;5.546;2023-07-31T06:44:04;17.70;91.50
67141;DHT22;54058;52.010;5.546;2023-07-31T06:46:30;17.80;91.50
67141;DHT22;54058;52.010;5.546;2023-07-31T06:48:55;17.70;91.50
67141;DHT22;54058;52.010;5.546;2023-07-31T06:51:21;17.80;91.50
67141;DHT22;54058;52.010;5.546;2023-07-31T06:53:47;17.70;91.60
67141;DHT22;54058;52.010;5.546;2023-07-31T06:56:12;17.70;91.60
67141;DHT22;54058;52.010;5.546;2023-07-31T06:58:38;17.70;91.70
67141;DHT22;54058;52.010;5.546;2023-07-31T07:01:04;17.80;91.70
67141;DHT22;54058;52.010;5.546;2023-07-31T07:03:30;17.80;91.70
67141;DHT22;54058;52.010;5.546;2023-07-31T07:05:55;17.90;91.80
67141;DHT22;54058;52.010;5.546;2023-07-31T07:08:21;17.90;91.80
67141;DHT22;54058;52.010;5.546;2023-07-31T07:10:47;17.90;91.80
67141;DHT22;54058;52.010;5.546;2023-07-31T07:13:13;18.00;91.80
67141;DHT22;54058;52.010;5.546;2023-07-31T07:15:39;18.00;91.70
67141;DHT22;54058;52.010;5.546;2023-07-31T07:18:05;18.00;91.80
67141;DHT22;54058;52.010;5.546;2023-07-31T07:20:30;18.00;91.70
67141;DHT22;54058;52.010;5.546;2023-07-31T07:22:56;18.10;91.80
67141;DHT22;54058;52.010;5.546;2023-07-31T07:25:21;18.10;91.80
67141;DHT22;54058;52.010;5.546;2023-07-31T07:27:47;18.10;91.80
67141;DHT22;54058;52.010;5.546;2023-07-31T07:30:13;18.10;91.80
67141;DHT22;54058;52.010;5.546;2023-07-31T07:32:39;18.10;91.80
67141;DHT22;54058;52.010;5.546;2023-07-31T07:35:06;18.10;91.80
67141;DHT22;54058;52.010;5.546;2023-07-31T07:37:32;18.10;91.90
67141;DHT22;54058;52.010;5.546;2023-07-31T07:39:57;18.10;91.90
67141;DHT22;54058;52.010;5.546;2023-07-31T07:42:23;18.10;91.90
67141;DHT22;54058;52.010;5.546;2023-07-31T07:44:49;18.00;92.00
67141;DHT22;54058;52.010;5.546;2023-07-31T07:47:14;18.00;92.10
67141;DHT22;54058;52.010;5.546;2023-07-31T07:49:40;18.00;92.10
67141;DHT22;54058;52.010;5.546;2023-07-31T07:52:06;18.10;92.10
67141;DHT22;54058;52.010;5.546;2023-07-31T07:54:31;18.10;92.10
67141;DHT22;54058;52.010;5.546;2023-07-31T07:56:57;18.10;92.20
67141;DHT22;54058;52.010;5.546;2023-07-31T07:59:23;18.10;92.20
67141;DHT22;54058;52.010;5.546;2023-07-31T08:01:49;18.20;92.30
67141;DHT22;54058;52.010;5.546;2023-07-31T08:04:15;18.20;92.30
67141;DHT22;54058;52.010;5.546;2023-07-31T08:06:40;18.20;92.30
67141;DHT22;54058;52.010;5.546;2023-07-31T08:09:06;18.20;92.30
67141;DHT22;54058;52.010;5.546;2023-07-31T08:11:33;18.30;92.40
67141;DHT22;54058;52.010;5.546;2023-07-31T08:13:58;18.20;92.40
67141;DHT22;54058;52.010;5.546;2023-07-31T08:16:24;18.20;92.40
67141;DHT22;54058;52.010;5.546;2023-07-31T08:18:50;18.20;92.40
67141;DHT22;54058;52.010;5.546;2023-07-31T08:21:15;18.30;92.40
67141;DHT22;54058;52.010;5.546;2023-07-31T08:23:41;18.30;92.40
67141;DHT22;54058;52.010;5.546;2023-07-31T08:26:06;18.30;92.40
67141;DHT22;54058;52.010;5.546;2023-07-31T08:28:32;18.30;92.50
67141;DHT22;54058;52.010;5.546;2023-07-31T08:30:58;18.40;92.50
67141;DHT22;54058;52.010;5.546;2023-07-31T08:33:23;18.40;92.50
67141;DHT22;54058;52.010;5.546;2023-07-31T08:35:49;18.40;92.40
67141;DHT22;54058;52.010;5.546;2023-07-31T08:38:14;18.50;92.50
67141;DHT22;54058;52.010;5.546;2023-07-31T08:40:40;18.50;92.50
67141;DHT22;54058;52.010;5.546;2023-07-31T08:43:09;18.60;92.50
67141;DHT22;54058;52.010;5.546;2023-07-31T08:45:35;18.60;92.40
67141;DHT22;54058;52.010;5.546;2023-07-31T08:48:00;18.60;92.40
67141;DHT22;54058;52.010;5.546;2023-07-31T08:50:26;18.70;92.50
67141;DHT22;54058;52.010;5.546;2023-07-31T08:52:53;18.70;92.50
67141;DHT22;54058;52.010;5.546;2023-07-31T08:55:19;18.70;92.50
67141;DHT22;54058;52.010;5.546;2023-07-31T08:57:51;18.70;92.50
67141;DHT22;54058;52.010;5.546;2023-07-31T09:00:18;18.70;92.80
67141;DHT22;54058;52.010;5.546;2023-07-31T09:02:56;18.70;92.60
67141;DHT22;54058;52.010;5.546;2023-07-31T09:05:23;18.80;92.70
67141;DHT22;54058;52.010;5.546;2023-07-31T09:07:50;18.80;92.60
67141;DHT22;54058;52.010;5.546;2023-07-31T09:10:16;18.80;92.90
67141;DHT22;54058;52.010;5.546;2023-07-31T09:12:42;18.80;92.70
67141;DHT22;54058;52.010;5.546;2023-07-31T09:15:09;18.80;92.80
67141;DHT22;54058;52.010;5.546;2023-07-31T09:17:36;18.80;92.80
67141;DHT22;54058;52.010;5.546;2023-07-31T09:22:43;18.80;93.50
67141;DHT22;54058;52.010;5.546;2023-07-31T09:25:20;18.80;92.80
67141;DHT22;54058;52.010;5.546;2023-07-31T09:27:47;18.90;92.90
67141;DHT22;54058;52.010;5.546;2023-07-31T09:30:13;18.80;92.80
67141;DHT22;54058;52.010;5.546;2023-07-31T09:32:39;18.80;92.90
67141;DHT22;54058;52.010;5.546;2023-07-31T09:35:19;18.80;93.00
67141;DHT22;54058;52.010;5.546;2023-07-31T09:37:58;18.80;93.00
67141;DHT22;54058;52.010;5.546;2023-07-31T09:40:37;18.80;93.00
67141;DHT22;54058;52.010;5.546;2023-07-31T09:43:04;18.80;93.20
67141;DHT22;54058;52.010;5.546;2023-07-31T09:45:39;18.80;93.10
67141;DHT22;54058;52.010;5.546;2023-07-31T09:48:10;18.80;93.10
67141;DHT22;54058;52.010;5.546;2023-07-31T09:50:40;18.90;93.20
67141;DHT22;54058;52.010;5.546;2023-07-31T09:53:07;18.90;93.00
67141;DHT22;54058;52.010;5.546;2023-07-31T09:55:33;18.90;93.10
67141;DHT22;54058;52.010;5.546;2023-07-31T09:58:03;18.90;93.00
67141;DHT22;54058;52.010;5.546;2023-07-31T10:00:30;19.00;93.00
67141;DHT22;54058;52.010;5.546;2023-07-31T10:02:59;18.90;93.00
67141;DHT22;54058;52.010;5.546;2023-07-31T10:05:30;19.00;93.00
67141;DHT22;54058;52.010;5.546;2023-07-31T10:07:57;19.00;93.10
67141;DHT22;54058;52.010;5.546;2023-07-31T10:10:22;19.10;93.10
67141;DHT22;54058;52.010;5.546;2023-07-31T10:12:49;19.10;93.70
67141;DHT22;54058;52.010;5.546;2023-07-31T10:15:15;19.10;93.10
67141;DHT22;54058;52.010;5.546;2023-07-31T10:17:41;19.30;93.20
67141;DHT22;54058;52.010;5.546;2023-07-31T10:20:09;19.50;93.20
67141;DHT22;54058;52.010;5.546;2023-07-31T10:22:35;19.50;93.00
67141;DHT22;54058;52.010;5.546;2023-07-31T10:25:01;19.60;93.00
67141;DHT22;54058;52.010;5.546;2023-07-31T10:27:27;19.60;93.00
67141;DHT22;54058;52.010;5.546;2023-07-31T10:29:55;19.60;93.00
67141;DHT22;54058;52.010;5.546;2023-07-31T10:32:22;19.60;93.00
67141;DHT22;54058;52.010;5.546;2023-07-31T10:34:50;19.70;93.10
67141;DHT22;54058;52.010;5.546;2023-07-31T10:37:36;19.70;93.00
67141;DHT22;54058;52.010;5.546;2023-07-31T10:40:04;19.70;93.20
67141;DHT22;54058;52.010;5.546;2023-07-31T10:42:36;19.80;93.20
67141;DHT22;54058;52.010;5.546;2023-07-31T10:45:06;19.80;93.20
67141;DHT22;54058;52.010;5.546;2023-07-31T10:50:26;20.00;93.30
67141;DHT22;54058;52.010;5.546;2023-07-31T10:52:56;20.10;93.30
67141;DHT22;54058;52.010;5.546;2023-07-31T10:55:40;20.20;93.20
67141;DHT22;54058;52.010;5.546;2023-07-31T10:58:09;20.20;93.20
67141;DHT22;54058;52.010;5.546;2023-07-31T11:00:37;20.10;93.30
67141;DHT22;54058;52.010;5.546;2023-07-31T11:03:07;20.10;93.30
67141;DHT22;54058;52.010;5.546;2023-07-31T11:08:30;20.10;93.30
67141;DHT22;54058;52.010;5.546;2023-07-31T11:15:53;20.10;93.50
67141;DHT22;54058;52.010;5.546;2023-07-31T11:18:19;20.10;93.40
67141;DHT22;54058;52.010;5.546;2023-07-31T11:20:45;20.00;93.50
67141;DHT22;54058;52.010;5.546;2023-07-31T11:23:11;20.00;93.50
67141;DHT22;54058;52.010;5.546;2023-07-31T11:25:38;20.00;93.50
67141;DHT22;54058;52.010;5.546;2023-07-31T11:28:15;19.90;93.60
67141;DHT22;54058;52.010;5.546;2023-07-31T11:30:42;20.00;93.60
67141;DHT22;54058;52.010;5.546;2023-07-31T11:33:10;20.00;93.60
67141;DHT22;54058;52.010;5.546;2023-07-31T11:35:48;19.90;93.60
67141;DHT22;54058;52.010;5.546;2023-07-31T11:38:30;20.00;93.70
67141;DHT22;54058;52.010;5.546;2023-07-31T11:41:00;19.90;93.70
67141;DHT22;54058;52.010;5.546;2023-07-31T11:43:28;19.90;93.60
67141;DHT22;54058;52.010;5.546;2023-07-31T11:45:59;19.90;93.60
67141;DHT22;54058;52.010;5.546;2023-07-31T11:48:26;19.90;93.60
67141;DHT22;54058;52.010;5.546;2023-07-31T11:50:54;20.00;93.60
67141;DHT22;54058;52.010;5.546;2023-07-31T11:53:43;20.00;93.80
67141;DHT22;54058;52.010;5.546;2023-07-31T11:56:13;20.00;93.70
67141;DHT22;54058;52.010;5.546;2023-07-31T11:58:39;20.10;93.50
67141;DHT22;54058;52.010;5.546;2023-07-31T12:01:06;20.10;93.50
67141;DHT22;54058;52.010;5.546;2023-07-31T12:03:32;20.10;93.50
67141;DHT22;54058;52.010;5.546;2023-07-31T12:05:59;20.10;93.90
67141;DHT22;54058;52.010;5.546;2023-07-31T12:08:25;20.20;93.40
67141;DHT22;54058;52.010;5.546;2023-07-31T12:10:54;20.20;93.30
67141;DHT22;54058;52.010;5.546;2023-07-31T12:13:27;20.20;93.30
67141;DHT22;54058;52.010;5.546;2023-07-31T12:15:57;20.20;93.30
67141;DHT22;54058;52.010;5.546;2023-07-31T12:18:25;20.20;93.30
67141;DHT22;54058;52.010;5.546;2023-07-31T12:21:00;20.20;93.30
67141;DHT22;54058;52.010;5.546;2023-07-31T12:23:31;20.20;93.40
67141;DHT22;54058;52.010;5.546;2023-07-31T12:28:46;20.20;93.40
67141;DHT22;54058;52.010;5.546;2023-07-31T12:31:16;20.10;93.40
67141;DHT22;54058;52.010;5.546;2023-07-31T12:33:46;20.10;93.50
67141;DHT22;54058;52.010;5.546;2023-07-31T12:36:14;20.10;93.30
67141;DHT22;54058;52.010;5.546;2023-07-31T12:38:40;20.10;93.30
67141;DHT22;54058;52.010;5.546;2023-07-31T12:41:06;20.10;93.30
67141;DHT22;54058;52.010;5.546;2023-07-31T12:43:36;20.20;93.30
67141;DHT22;54058;52.010;5.546;2023-07-31T12:46:01;20.20;93.30
67141;DHT22;54058;52.010;5.546;2023-07-31T12:48:27;20.30;93.30
67141;DHT22;54058;52.010;5.546;2023-07-31T12:50:53;20.30;93.30
67141;DHT22;54058;52.010;5.546;2023-07-31T12:53:18;20.30;93.30
67141;DHT22;54058;52.010;5.546;2023-07-31T12:55:44;20.30;93.30
67141;DHT22;54058;52.010;5.546;2023-07-31T12:58:09;20.40;93.30
67141;DHT22;54058;52.010;5.546;2023-07-31T13:00:35;20.50;93.30
67141;DHT22;54058;52.010;5.546;2023-07-31T13:03:01;20.60;93.30
67141;DHT22;54058;52.010;5.546;2023-07-31T13:05:27;20.60;93.30
67141;DHT22;54058;52.010;5.546;2023-07-31T13:07:53;20.60;93.40
67141;DHT22;54058;52.010;5.546;2023-07-31T13:10:19;20.70;93.30
67141;DHT22;54058;52.010;5.546;2023-07-31T13:12:45;20.70;93.20
67141;DHT22;54058;52.010;5.546;2023-07-31T13:15:11;20.70;93.20
67141;DHT22;54058;52.010;5.546;2023-07-31T13:17:37;20.60;93.20
67141;DHT22;54058;52.010;5.546;2023-07-31T13:20:03;20.60;93.10
67141;DHT22;54058;52.010;5.546;2023-07-31T13:22:29;20.50;93.20
67141;DHT22;54058;52.010;5.546;2023-07-31T13:24:55;20.50;93.20
67141;DHT22;54058;52.010;5.546;2023-07-31T13:27:20;20.50;93.30
67141;DHT22;54058;52.010;5.546;2023-07-31T13:29:49;20.40;93.20
67141;DHT22;54058;52.010;5.546;2023-07-31T13:32:16;20.30;93.30
67141;DHT22;54058;52.010;5.546;2023-07-31T13:34:42;20.30;93.20
67141;DHT22;54058;52.010;5.546;2023-07-31T13:37:08;20.30;93.30
67141;DHT22;54058;52.010;5.546;2023-07-31T13:39:34;20.30;93.30
67141;DHT22;54058;52.010;5.546;2023-07-31T13:42:00;20.30;93.50
67141;DHT22;54058;52.010;5.546;2023-07-31T13:44:26;20.30;93.30
67141;DHT22;54058;52.010;5.546;2023-07-31T13:46:52;20.30;93.20
67141;DHT22;54058;52.010;5.546;2023-07-31T13:49:17;20.30;93.20
67141;DHT22;54058;52.010;5.546;2023-07-31T13:51:43;20.30;93.30
67141;DHT22;54058;52.010;5.546;2023-07-31T13:54:09;20.30;93.20
67141;DHT22;54058;52.010;5.546;2023-07-31T13:56:37;20.30;93.30
67141;DHT22;54058;52.010;5.546;2023-07-31T13:59:02;20.30;93.30
67141;DHT22;54058;52.010;5.546;2023-07-31T14:01:28;20.20;93.30
67141;DHT22;54058;52.010;5.546;2023-07-31T14:03:54;20.30;93.30
67141;DHT22;54058;52.010;5.546;2023-07-31T14:06:19;20.20;93.30
67141;DHT22;54058;52.010;5.546;2023-07-31T14:08:45;20.20;93.30
67141;DHT22;54058;52.010;5.546;2023-07-31T14:11:11;20.10;93.30
67141;DHT22;54058;52.010;5.546;2023-07-31T14:13:36;20.10;93.30
67141;DHT22;54058;52.010;5.546;2023-07-31T14:16:02;20.10;93.40
67141;DHT22;54058;52.010;5.546;2023-07-31T14:18:28;20.00;93.30
67141;DHT22;54058;52.010;5.546;2023-07-31T14:20:53;20.00;93.40
67141;DHT22;54058;52.010;5.546;2023-07-31T14:23:19;20.00;93.50
67141;DHT22;54058;52.010;5.546;2023-07-31T14:25:46;20.00;93.50
67141;DHT22;54058;52.010;5.546;2023-07-31T14:28:11;19.90;93.50
67141;DHT22;54058;52.010;5.546;2023-07-31T14:30:37;19.90;93.50
67141;DHT22;54058;52.010;5.546;2023-07-31T14:33:03;19.90;93.50
67141;DHT22;54058;52.010;5.546;2023-07-31T14:35:29;19.90;93.50
67141;DHT22;54058;52.010;5.546;2023-07-31T14:37:54;19.90;93.50
67141;DHT22;54058;52.010;5.546;2023-07-31T14:40:20;19.80;93.50
67141;DHT22;54058;52.010;5.546;2023-07-31T14:42:45;19.80;93.60
67141;DHT22;54058;52.010;5.546;2023-07-31T14:45:11;19.80;93.60
67141;DHT22;54058;52.010;5.546;2023-07-31T14:47:37;19.80;93.70
67141;DHT22;54058;52.010;5.546;2023-07-31T14:50:03;19.80;93.60
67141;DHT22;54058;52.010;5.546;2023-07-31T14:52:29;19.70;93.60
67141;DHT22;54058;52.010;5.546;2023-07-31T14:54:55;19.70;93.60
67141;DHT22;54058;52.010;5.546;2023-07-31T14:57:21;19.70;93.60
67141;DHT22;54058;52.010;5.546;2023-07-31T14:59:47;19.70;93.60
67141;DHT22;54058;52.010;5.546;2023-07-31T15:02:15;19.70;93.60
67141;DHT22;54058;52.010;5.546;2023-07-31T15:04:41;19.60;93.70
67141;DHT22;54058;52.010;5.546;2023-07-31T15:07:07;19.60;93.70
67141;DHT22;54058;52.010;5.546;2023-07-31T15:09:32;19.60;93.80
67141;DHT22;54058;52.010;5.546;2023-07-31T15:11:59;19.70;93.80
67141;DHT22;54058;52.010;5.546;2023-07-31T15:14:25;19.60;93.80
67141;DHT22;54058;52.010;5.546;2023-07-31T15:16:53;19.70;93.80
67141;DHT22;54058;52.010;5.546;2023-07-31T15:19:18;19.70;93.80
67141;DHT22;54058;52.010;5.546;2023-07-31T15:21:44;19.70;93.80
67141;DHT22;54058;52.010;5.546;2023-07-31T15:24:09;19.60;93.70
67141;DHT22;54058;52.010;5.546;2023-07-31T15:26:37;19.60;93.70
67141;DHT22;54058;52.010;5.546;2023-07-31T15:29:06;19.70;93.70
67141;DHT22;54058;52.010;5.546;2023-07-31T15:31:38;19.70;93.70
67141;DHT22;54058;52.010;5.546;2023-07-31T15:34:04;19.70;93.80
67141;DHT22;54058;52.010;5.546;2023-07-31T15:36:30;19.60;93.70
67141;DHT22;54058;52.010;5.546;2023-07-31T15:38:56;19.70;93.70
67141;DHT22;54058;52.010;5.546;2023-07-31T15:41:22;19.60;93.80
67141;DHT22;54058;52.010;5.546;2023-07-31T15:43:49;19.60;93.80
67141;DHT22;54058;52.010;5.546;2023-07-31T15:46:14;19.60;93.80
67141;DHT22;54058;52.010;5.546;2023-07-31T15:48:40;19.60;93.80